createdAt,value
2023-05-05T00:01:28.097Z,15.11
2023-05-05T00:03:55.843Z,15.10
2023-05-05T00:06:23.490Z,15.07
2023-05-05T00:08:51.159Z,15.04
2023-05-05T00:11:18.678Z,15.02
2023-05-05T00:13:48.124Z,15.00
2023-05-05T00:16:15.774Z,14.99
2023-05-05T00:18:43.278Z,14.97
2023-05-05T00:21:10.827Z,15.01
2023-05-05T00:23:38.381Z,15.02
2023-05-05T00:26:06.414Z,15.01
2023-05-05T00:28:33.986Z,15.01
2023-05-05T00:31:02.915Z,15.01
2023-05-05T00:33:30.562Z,15.01
2023-05-05T00:35:58.092Z,14.99
2023-05-05T00:38:25.761Z,14.97
2023-05-05T00:40:53.304Z,14.94
2023-05-05T00:43:20.865Z,14.92
2023-05-05T00:45:48.903Z,14.90
2023-05-05T00:48:18.873Z,14.84
2023-05-05T00:50:46.438Z,14.79
2023-05-05T00:53:14.118Z,14.76
2023-05-05T00:55:41.912Z,14.74
2023-05-05T00:58:10.287Z,14.72
2023-05-05T01:00:37.898Z,14.72
2023-05-05T01:03:06.114Z,14.67
2023-05-05T01:05:43.482Z,14.62
2023-05-05T01:08:28.037Z,14.58
2023-05-05T01:11:00.507Z,14.54
2023-05-05T01:13:38.253Z,14.54
2023-05-05T01:16:13.067Z,14.50
2023-05-05T01:18:47.405Z,14.47
2023-05-05T01:21:21.209Z,14.46
2023-05-05T01:24:21.001Z,14.40
2023-05-05T01:26:59.119Z,14.38
2023-05-05T01:29:51.656Z,14.35
2023-05-05T01:32:25.054Z,14.36
2023-05-05T01:34:57.191Z,14.35
2023-05-05T01:37:29.020Z,14.30
2023-05-05T01:39:59.768Z,14.30
2023-05-05T01:42:28.579Z,14.32
2023-05-05T01:44:58.237Z,14.27
2023-05-05T01:47:28.838Z,14.21
2023-05-05T01:49:56.431Z,14.18
2023-05-05T01:52:25.359Z,14.15
2023-05-05T01:54:53.963Z,14.10
2023-05-05T01:57:22.443Z,14.02
2023-05-05T01:59:52.821Z,13.94
2023-05-05T02:02:22.325Z,13.87
2023-05-05T02:04:54.227Z,13.79
2023-05-05T02:07:24.016Z,13.74
2023-05-05T02:09:52.909Z,13.68
2023-05-05T02:12:21.954Z,13.64
2023-05-05T02:14:50.709Z,13.64
2023-05-05T02:17:19.561Z,13.64
2023-05-05T02:19:52.261Z,13.66
2023-05-05T02:22:20.999Z,13.69
2023-05-05T02:24:48.490Z,13.62
2023-05-05T02:27:18.754Z,13.55
2023-05-05T02:29:49.776Z,13.47
2023-05-05T02:32:33.050Z,13.45
2023-05-05T02:35:05.292Z,13.38
2023-05-05T02:37:36.391Z,13.33
2023-05-05T02:40:06.311Z,13.32
2023-05-05T02:42:37.396Z,13.29
2023-05-05T02:45:11.229Z,13.25
2023-05-05T02:47:39.425Z,13.23
2023-05-05T02:50:08.900Z,13.16
2023-05-05T02:52:38.452Z,13.13
2023-05-05T02:55:07.823Z,13.11
2023-05-05T02:57:39.838Z,13.10
2023-05-05T03:00:11.689Z,13.07
2023-05-05T03:02:45.647Z,13.01
2023-05-05T03:05:20.478Z,12.94
2023-05-05T03:07:56.943Z,12.86
2023-05-05T03:10:29.866Z,12.84
2023-05-05T03:13:00.773Z,12.77
2023-05-05T03:15:32.634Z,12.73
2023-05-05T03:18:01.297Z,12.71
2023-05-05T03:20:30.522Z,12.69
2023-05-05T03:23:01.777Z,12.65
2023-05-05T03:25:43.146Z,12.62
2023-05-05T03:28:10.686Z,12.62
2023-05-05T03:30:38.461Z,12.63
2023-05-05T03:33:06.075Z,12.67
2023-05-05T03:35:33.633Z,12.71
2023-05-05T03:38:02.613Z,12.80
2023-05-05T03:40:43.131Z,12.82
2023-05-05T03:43:11.604Z,12.86
2023-05-05T03:45:39.136Z,12.90
2023-05-05T03:48:09.534Z,12.88
2023-05-05T03:50:37.553Z,12.83
2023-05-05T03:53:06.494Z,12.82
2023-05-05T03:55:34.003Z,12.84
2023-05-05T03:58:01.560Z,12.80
2023-05-05T04:00:29.172Z,12.72
2023-05-05T04:02:57.092Z,12.73
2023-05-05T04:05:25.324Z,12.79
2023-05-05T04:07:52.880Z,12.79
2023-05-05T05:20:44.536Z,12.57
2023-05-05T05:23:12.066Z,12.66
2023-05-05T05:25:39.579Z,12.75
2023-05-05T05:28:10.529Z,12.87
2023-05-05T05:30:38.601Z,13.01
2023-05-05T05:33:06.193Z,13.15
2023-05-05T05:35:33.759Z,13.28
2023-05-05T05:38:02.614Z,13.43
2023-05-05T05:40:30.164Z,13.56
2023-05-05T05:42:57.715Z,13.70
2023-05-05T05:45:25.259Z,13.84
2023-05-05T05:47:52.879Z,13.97
2023-05-05T05:50:21.097Z,14.09
2023-05-05T05:52:48.624Z,14.17
2023-05-05T05:55:17.764Z,14.28
2023-05-05T05:57:45.342Z,14.38
2023-05-05T06:00:14.285Z,14.46
2023-05-05T06:02:41.895Z,14.56
2023-05-05T06:05:10.443Z,14.67
2023-05-05T06:07:38.018Z,14.79
2023-05-05T06:10:25.097Z,14.94
2023-05-05T06:12:55.326Z,15.09
2023-05-05T06:15:22.893Z,15.22
2023-05-05T06:17:50.434Z,15.30
2023-05-05T06:20:18.590Z,15.38
2023-05-05T06:22:46.142Z,15.49
2023-05-05T06:25:13.656Z,15.63
2023-05-05T06:27:41.192Z,15.77
2023-05-05T06:30:11.447Z,15.93
2023-05-05T06:32:39.033Z,16.10
2023-05-05T06:35:07.976Z,16.28
2023-05-05T06:37:35.886Z,16.42
2023-05-05T06:40:03.439Z,16.56
2023-05-05T06:42:32.209Z,16.70
2023-05-05T06:44:59.753Z,16.82
2023-05-05T06:47:28.733Z,16.96
2023-05-05T06:49:56.666Z,17.10
2023-05-05T06:52:24.256Z,17.24
2023-05-05T06:54:51.803Z,17.35
2023-05-05T06:57:19.350Z,17.46
2023-05-05T06:59:47.000Z,17.61
2023-05-05T07:02:14.572Z,17.74
2023-05-05T07:04:43.669Z,17.85
2023-05-05T07:07:11.200Z,17.95
2023-05-05T07:09:38.955Z,18.06
2023-05-05T07:12:06.940Z,18.18
2023-05-05T07:14:34.442Z,18.29
2023-05-05T07:17:01.990Z,18.41
2023-05-05T07:19:29.614Z,18.53
2023-05-05T07:21:58.485Z,18.65
2023-05-05T07:24:26.076Z,18.72
2023-05-05T07:26:53.680Z,18.81
2023-05-05T07:29:21.258Z,18.87
2023-05-05T07:31:48.820Z,18.97
2023-05-05T07:34:16.497Z,19.06
2023-05-05T07:36:44.100Z,19.14
2023-05-05T07:39:15.148Z,19.27
2023-05-05T07:41:42.781Z,19.41
2023-05-05T07:44:10.316Z,19.54
2023-05-05T07:46:37.894Z,19.66
2023-05-05T07:49:05.518Z,19.80
2023-05-05T07:51:34.636Z,19.91
2023-05-05T07:54:02.682Z,20.00
2023-05-05T07:56:31.608Z,20.10
2023-05-05T07:58:59.194Z,20.20
2023-05-05T08:01:26.905Z,20.24
2023-05-05T08:03:54.561Z,20.33
2023-05-05T08:06:23.360Z,20.42
2023-05-05T08:08:50.898Z,20.51
2023-05-05T08:11:18.606Z,20.63
2023-05-05T08:13:47.679Z,20.74
2023-05-05T08:16:15.627Z,20.86
2023-05-05T08:18:43.436Z,20.96
2023-05-05T08:21:12.187Z,21.07
2023-05-05T08:23:40.253Z,21.12
2023-05-05T08:26:09.130Z,21.22
2023-05-05T08:28:37.349Z,21.32
2023-05-05T08:31:06.604Z,21.46
2023-05-05T08:33:34.384Z,21.56
2023-05-05T08:36:02.071Z,21.67
2023-05-05T08:38:29.581Z,21.75
2023-05-05T08:40:57.162Z,21.79
2023-05-05T08:43:24.761Z,21.78
2023-05-05T08:45:52.544Z,21.71
2023-05-05T08:48:21.595Z,21.59
2023-05-05T08:50:52.799Z,21.54
2023-05-05T08:53:34.120Z,21.54
2023-05-05T08:56:03.609Z,21.53
2023-05-05T08:58:32.217Z,21.53
2023-05-05T09:01:01.544Z,21.55
2023-05-05T09:03:30.813Z,21.56
2023-05-05T09:05:59.119Z,21.53
2023-05-05T09:08:27.260Z,21.48
2023-05-05T09:10:56.559Z,21.33
2023-05-05T09:13:24.373Z,21.27
2023-05-05T09:15:51.940Z,21.21
2023-05-05T09:18:19.538Z,21.13
2023-05-05T09:20:48.652Z,21.11
2023-05-05T09:23:18.558Z,21.11
2023-05-05T09:25:48.548Z,21.08
2023-05-05T09:28:18.779Z,21.05
2023-05-05T09:30:47.948Z,21.02
2023-05-05T09:33:15.796Z,21.02
2023-05-05T09:35:52.528Z,21.05
2023-05-05T09:38:20.844Z,21.06
2023-05-05T09:40:49.760Z,21.06
2023-05-05T09:43:18.212Z,21.04
2023-05-05T09:45:46.181Z,21.05
2023-05-05T09:48:27.378Z,21.03
2023-05-05T09:50:57.426Z,21.04
2023-05-05T09:53:25.484Z,21.02
2023-05-05T09:55:57.049Z,20.97
2023-05-05T09:58:25.842Z,20.95
2023-05-05T10:00:54.077Z,20.90
2023-05-05T10:03:21.878Z,20.81
2023-05-05T10:05:51.891Z,20.72
2023-05-05T10:08:22.922Z,20.66
2023-05-05T10:10:56.180Z,20.58
2023-05-05T10:13:25.616Z,20.54
2023-05-05T10:15:54.722Z,20.47
2023-05-05T10:18:23.672Z,20.41
2023-05-05T10:20:57.870Z,20.38
2023-05-05T10:23:32.206Z,20.32
2023-05-05T10:26:03.651Z,20.28
2023-05-05T10:28:34.463Z,20.22
2023-05-05T10:31:12.824Z,20.16
2023-05-05T10:33:53.531Z,20.12
2023-05-05T10:36:21.451Z,20.05
2023-05-05T10:38:51.787Z,20.00
2023-05-05T10:41:20.253Z,19.96
2023-05-05T10:43:48.233Z,19.92
2023-05-05T10:46:15.974Z,19.85
2023-05-05T10:48:50.704Z,19.78
2023-05-05T10:51:39.256Z,19.70
2023-05-05T10:54:14.940Z,19.63
2023-05-05T10:56:43.818Z,19.58
2023-05-05T10:59:43.236Z,19.54
2023-05-05T11:02:21.681Z,19.50
2023-05-05T11:05:17.452Z,19.49
2023-05-05T11:07:46.012Z,19.46
2023-05-05T11:10:16.295Z,19.42
2023-05-05T11:13:18.535Z,19.42
2023-05-05T11:15:46.169Z,19.41
2023-05-05T11:18:39.105Z,19.41
2023-05-05T11:21:17.645Z,19.45
2023-05-05T11:23:47.236Z,19.50
2023-05-05T11:26:17.138Z,19.55
2023-05-05T11:28:59.451Z,19.62
2023-05-05T11:31:27.354Z,19.70
2023-05-05T11:33:54.988Z,19.82
2023-05-05T11:36:40.584Z,19.94
2023-05-05T11:39:10.471Z,20.07
2023-05-05T11:42:10.433Z,20.24
2023-05-05T11:44:38.604Z,20.39
2023-05-05T11:47:29.683Z,20.60
2023-05-05T11:49:57.601Z,20.74
2023-05-05T11:52:29.622Z,20.88
2023-05-05T11:55:02.393Z,21.04
2023-05-05T11:57:31.788Z,21.15
2023-05-05T12:00:01.635Z,21.25
2023-05-05T12:02:30.523Z,21.32
2023-05-05T12:04:59.157Z,21.43
2023-05-05T12:07:28.420Z,21.51
2023-05-05T12:09:56.091Z,21.61
2023-05-05T12:12:36.857Z,21.69
2023-05-05T12:15:05.703Z,21.78
2023-05-05T12:17:42.585Z,21.89
2023-05-05T12:20:12.165Z,22.01
2023-05-05T12:22:40.644Z,22.11
2023-05-05T12:25:09.038Z,22.19
2023-05-05T12:27:38.529Z,22.21
2023-05-05T12:30:16.069Z,22.27
2023-05-05T12:32:44.106Z,22.31
2023-05-05T12:35:13.488Z,22.38
2023-05-05T12:37:41.664Z,22.44
2023-05-05T12:40:45.597Z,22.49
2023-05-05T12:43:26.566Z,22.54
2023-05-05T12:46:02.072Z,22.62
2023-05-05T12:48:29.931Z,22.68
2023-05-05T12:51:14.360Z,22.74
2023-05-05T12:53:41.981Z,22.76
2023-05-05T12:56:31.035Z,22.79
2023-05-05T12:59:00.216Z,22.84
2023-05-05T13:01:28.292Z,22.87
2023-05-05T13:04:09.628Z,22.91
2023-05-05T13:06:37.660Z,22.97
2023-05-05T13:09:05.879Z,23.02
2023-05-05T13:11:36.348Z,23.07
2023-05-05T13:14:05.897Z,23.11
2023-05-05T13:16:33.801Z,23.09
2023-05-05T13:19:01.338Z,23.04
2023-05-05T13:21:29.045Z,23.04
2023-05-05T13:24:05.078Z,23.04
2023-05-05T13:26:44.108Z,23.06
2023-05-05T13:29:12.941Z,23.08
2023-05-05T13:31:40.745Z,23.11
2023-05-05T13:34:08.487Z,23.12
2023-05-05T13:36:36.018Z,23.13
2023-05-05T13:39:03.599Z,23.12
2023-05-05T13:41:31.157Z,23.11
2023-05-05T13:43:58.667Z,23.10
2023-05-05T13:46:27.608Z,23.10
2023-05-05T13:48:56.916Z,23.11
2023-05-05T13:51:24.623Z,23.15
2023-05-05T13:53:52.431Z,23.17
2023-05-05T13:56:20.059Z,23.21
2023-05-05T13:58:47.588Z,23.22
2023-05-05T14:01:15.112Z,23.21
2023-05-05T14:03:44.007Z,23.19
2023-05-05T14:06:11.547Z,23.19
2023-05-05T14:08:39.112Z,23.19
2023-05-05T14:11:06.711Z,23.18
2023-05-05T14:13:34.294Z,23.17
2023-05-05T14:16:02.305Z,23.19
2023-05-05T14:18:29.880Z,23.19
2023-05-05T14:20:58.889Z,23.17
2023-05-05T14:23:26.479Z,23.14
2023-05-05T14:25:54.602Z,23.13
2023-05-05T14:28:22.130Z,23.14
2023-05-05T14:30:49.694Z,23.13
2023-05-05T14:33:17.673Z,23.10
2023-05-05T14:35:45.253Z,23.11
2023-05-05T14:38:14.135Z,23.10
2023-05-05T14:40:41.760Z,23.10
2023-05-05T14:43:09.340Z,23.10
2023-05-05T14:45:36.952Z,23.07
2023-05-05T14:48:04.783Z,23.03
2023-05-05T14:50:32.340Z,22.95
2023-05-05T14:52:59.893Z,22.89
2023-05-05T14:55:28.779Z,22.82
2023-05-05T14:57:56.288Z,22.77
2023-05-05T15:00:23.995Z,22.74
2023-05-05T15:02:51.592Z,22.74
2023-05-05T15:05:19.176Z,22.71
2023-05-05T15:07:46.724Z,22.68
2023-05-05T15:10:14.269Z,22.59
2023-05-05T15:12:43.596Z,22.53
2023-05-05T15:15:11.886Z,22.46
2023-05-05T15:17:41.556Z,22.39
2023-05-05T15:20:10.102Z,22.32
2023-05-05T15:22:37.629Z,22.26
2023-05-05T15:25:08.997Z,22.20
2023-05-05T15:27:37.954Z,22.15
2023-05-05T15:30:08.568Z,22.06
2023-05-05T15:32:36.112Z,21.99
2023-05-05T15:35:03.764Z,21.94
2023-05-05T15:37:31.752Z,21.90
2023-05-05T15:39:59.384Z,21.86
2023-05-05T15:42:27.434Z,21.81
2023-05-05T15:44:55.059Z,21.75
2023-05-05T15:47:24.121Z,21.70
2023-05-05T15:49:51.687Z,21.65
2023-05-05T15:52:19.257Z,21.60
2023-05-05T15:54:46.842Z,21.52
2023-05-05T15:57:14.480Z,21.44
2023-05-05T15:59:42.270Z,21.36
2023-05-05T16:02:09.827Z,21.29
2023-05-05T16:04:38.754Z,21.24
2023-05-05T16:07:06.289Z,21.22
2023-05-05T16:09:33.992Z,21.16
2023-05-05T16:12:02.594Z,21.11
2023-05-05T16:14:33.155Z,21.06
2023-05-05T16:17:03.744Z,21.06
2023-05-05T16:19:31.364Z,21.04
2023-05-05T16:22:00.608Z,21.02
2023-05-05T16:24:28.169Z,21.02
2023-05-05T16:26:55.757Z,20.96
2023-05-05T16:29:23.451Z,20.92
2023-05-05T16:31:50.978Z,20.88
2023-05-05T16:34:18.536Z,20.86
2023-05-05T16:36:46.500Z,20.83
2023-05-05T16:39:15.453Z,20.79
2023-05-05T16:41:42.976Z,20.74
2023-05-05T16:44:10.494Z,20.69
2023-05-05T16:46:39.938Z,20.64
2023-05-05T16:49:07.559Z,20.59
2023-05-05T16:51:35.102Z,20.54
2023-05-05T16:54:02.639Z,20.50
2023-05-05T16:56:31.602Z,20.44
2023-05-05T16:58:59.164Z,20.40
2023-05-05T17:01:26.709Z,20.35
2023-05-05T17:03:55.306Z,20.33
2023-05-05T17:06:22.859Z,20.29
2023-05-05T17:08:50.410Z,20.28
2023-05-05T17:11:17.998Z,20.28
2023-05-05T17:13:46.940Z,20.28
2023-05-05T17:16:14.560Z,20.29
2023-05-05T17:18:42.102Z,20.26
2023-05-05T17:21:09.699Z,20.18
2023-05-05T17:23:37.440Z,20.10
2023-05-05T17:26:05.185Z,19.99
2023-05-05T17:28:32.729Z,19.89
2023-05-05T17:31:02.041Z,19.82
2023-05-05T17:33:29.600Z,19.78
2023-05-05T17:35:57.117Z,19.75
2023-05-05T17:38:24.648Z,19.64
2023-05-05T17:40:52.170Z,19.54
2023-05-05T17:43:19.704Z,19.45
2023-05-05T17:45:47.403Z,19.33
2023-05-05T17:48:16.355Z,19.23
2023-05-05T17:50:43.964Z,19.11
2023-05-05T17:53:11.805Z,18.99
2023-05-05T17:55:39.321Z,18.90
2023-05-05T17:58:06.821Z,18.86
2023-05-05T18:00:34.381Z,18.79
2023-05-05T18:03:02.036Z,18.73
2023-05-05T18:05:31.324Z,18.66
2023-05-05T18:07:59.210Z,18.61
2023-05-05T18:10:26.833Z,18.57
2023-05-05T18:12:54.408Z,18.53
2023-05-05T18:15:22.589Z,18.46
2023-05-05T18:17:50.098Z,18.38
2023-05-05T18:20:18.269Z,18.24
2023-05-05T18:22:47.303Z,18.14
2023-05-05T18:25:14.873Z,18.04
2023-05-05T18:27:43.821Z,17.94
2023-05-05T18:30:12.061Z,17.88
2023-05-05T18:32:39.603Z,17.80
2023-05-05T18:35:08.218Z,17.68
2023-05-05T18:37:36.173Z,17.57
2023-05-05T18:40:05.890Z,17.54
2023-05-05T18:42:33.429Z,17.53
2023-05-05T18:45:01.533Z,17.53
2023-05-05T18:47:29.249Z,17.50
2023-05-05T18:49:56.854Z,17.39
2023-05-05T18:52:24.382Z,17.32
2023-05-05T18:54:51.904Z,17.25
2023-05-05T18:57:20.792Z,17.15
2023-05-05T18:59:48.349Z,17.06
2023-05-05T19:02:16.943Z,17.03
2023-05-05T19:04:44.894Z,17.04
2023-05-05T19:07:18.370Z,17.05
2023-05-05T19:09:51.579Z,17.03
2023-05-05T19:12:19.103Z,17.06
2023-05-05T19:14:47.975Z,17.12
2023-05-05T19:17:15.527Z,17.15
2023-05-05T19:19:43.214Z,17.18
2023-05-05T19:22:10.741Z,17.21
2023-05-05T19:24:38.323Z,17.27
2023-05-05T19:27:07.047Z,17.34
2023-05-05T19:29:35.093Z,17.39
2023-05-05T19:32:04.050Z,17.43
2023-05-05T19:34:31.981Z,17.48
2023-05-05T19:37:00.184Z,17.42
2023-05-05T19:39:27.968Z,17.40
2023-05-05T19:41:56.148Z,17.38
2023-05-05T19:44:24.419Z,17.40
2023-05-05T19:46:53.802Z,17.40
2023-05-05T19:49:22.992Z,17.40
2023-05-05T19:51:52.204Z,17.32
2023-05-05T19:54:19.930Z,17.24
2023-05-05T19:56:47.637Z,17.19
2023-05-05T19:59:15.324Z,17.22
2023-05-05T20:01:43.042Z,17.23
2023-05-05T20:04:10.593Z,17.16
2023-05-05T20:06:39.420Z,17.06
2023-05-05T20:09:08.003Z,16.94
2023-05-05T20:11:35.931Z,16.82
2023-05-05T20:14:03.689Z,16.73
2023-05-05T20:16:31.459Z,16.67
2023-05-05T20:18:59.705Z,16.65
2023-05-05T20:21:27.944Z,16.63
2023-05-05T20:23:57.024Z,16.61
2023-05-05T20:26:25.837Z,16.63
2023-05-05T20:28:53.849Z,16.70
2023-05-05T20:31:21.924Z,16.76
2023-05-05T20:33:49.893Z,16.83
2023-05-05T20:36:18.568Z,16.83
2023-05-05T20:38:46.219Z,16.81
2023-05-05T20:41:15.523Z,16.82
2023-05-05T20:43:43.597Z,16.82
2023-05-05T20:46:13.218Z,16.82
2023-05-05T20:48:42.925Z,16.80
2023-05-05T20:51:10.851Z,16.76
2023-05-05T20:53:38.399Z,16.73
2023-05-05T20:56:08.654Z,16.72
2023-05-05T20:58:38.025Z,16.72
2023-05-05T21:01:05.580Z,16.72
2023-05-05T21:03:33.173Z,16.70
2023-05-05T21:06:00.732Z,16.68
2023-05-05T21:08:28.296Z,16.71
2023-05-05T21:10:55.815Z,16.72
2023-05-05T21:13:23.431Z,16.69
2023-05-05T21:15:52.328Z,16.68
2023-05-05T21:18:19.847Z,16.65
2023-05-05T21:20:47.393Z,16.63
2023-05-05T21:23:14.918Z,16.59
2023-05-05T21:25:42.483Z,16.60
2023-05-05T21:28:10.065Z,16.59
2023-05-05T21:30:37.951Z,16.60
2023-05-05T21:33:06.889Z,16.60
2023-05-05T21:35:34.479Z,16.62
2023-05-05T21:38:02.009Z,16.54
2023-05-05T21:40:29.724Z,16.51
2023-05-05T21:42:57.279Z,16.52
2023-05-05T21:45:25.039Z,16.46
2023-05-05T21:47:52.767Z,16.33
2023-05-05T21:50:21.956Z,16.25
2023-05-05T21:52:50.544Z,16.20
2023-05-05T21:55:18.094Z,16.10
2023-05-05T21:57:45.654Z,16.01
2023-05-05T22:00:16.644Z,15.98
2023-05-05T22:02:44.448Z,16.01
2023-05-05T22:05:12.249Z,16.06
2023-05-05T22:07:41.310Z,16.04
2023-05-05T22:10:10.395Z,15.98
2023-05-05T22:12:38.228Z,15.93
2023-05-05T22:15:06.993Z,15.91
2023-05-05T22:17:34.714Z,15.94
2023-05-05T22:20:02.213Z,15.92
2023-05-05T22:22:29.709Z,15.85
2023-05-05T22:24:58.678Z,15.76
2023-05-05T22:27:26.761Z,15.70
2023-05-05T22:29:54.314Z,15.66
2023-05-05T22:32:22.029Z,15.63
2023-05-05T22:34:49.739Z,15.58
2023-05-05T22:37:17.605Z,15.53
2023-05-05T22:39:45.119Z,15.49
2023-05-05T22:42:14.011Z,15.48
2023-05-05T22:44:41.500Z,15.52
2023-05-05T22:47:09.132Z,15.49
2023-05-05T22:49:36.947Z,15.44
2023-05-05T22:52:04.638Z,15.42
2023-05-05T22:54:32.169Z,15.43
2023-05-05T22:56:59.785Z,15.48
2023-05-05T22:59:28.686Z,15.51
2023-05-05T23:01:56.301Z,15.53
2023-05-05T23:04:23.860Z,15.52
2023-05-05T23:06:51.953Z,15.53
2023-05-05T23:09:19.887Z,15.55
2023-05-05T23:11:47.391Z,15.58
2023-05-05T23:14:16.792Z,15.65
2023-05-05T23:16:45.750Z,15.70
2023-05-05T23:19:13.437Z,15.70
2023-05-05T23:21:52.056Z,15.71
2023-05-05T23:24:20.646Z,15.78
2023-05-05T23:26:48.174Z,15.83
2023-05-05T23:29:15.689Z,15.80
2023-05-05T23:31:43.193Z,15.77
2023-05-05T23:34:12.160Z,15.75
2023-05-05T23:36:39.704Z,15.73
2023-05-05T23:39:07.295Z,15.69
2023-05-05T23:41:34.811Z,15.69
2023-05-05T23:44:02.336Z,15.70
2023-05-05T23:46:30.410Z,15.68
2023-05-05T23:48:57.985Z,15.66
2023-05-05T23:51:27.962Z,15.65
2023-05-05T23:53:57.163Z,15.62
2023-05-05T23:56:24.954Z,15.58
2023-05-05T23:58:53.800Z,15.54
